createdAt,value
2017-10-03T00:02:05.483Z,69.8
2017-10-03T00:07:03.602Z,69.8
2017-10-03T00:12:03.403Z,69.5
2017-10-03T00:17:03.987Z,69.5
2017-10-03T00:22:03.175Z,69.6
2017-10-03T00:27:03.708Z,69.6
2017-10-03T00:32:03.118Z,69.6
2017-10-03T00:37:03.350Z,69.5
2017-10-03T00:42:03.714Z,69.6
2017-10-03T00:47:03.189Z,69.7
2017-10-03T00:52:03.192Z,69.7
2017-10-03T00:57:03.640Z,69.9
2017-10-03T01:02:03.571Z,69.5
2017-10-03T01:07:03.261Z,69.5
2017-10-03T01:12:03.777Z,69.5
2017-10-03T01:17:03.799Z,69.9
2017-10-03T01:22:03.307Z,69.7
2017-10-03T01:27:03.783Z,69.7
2017-10-03T01:32:03.721Z,69.7
2017-10-03T01:37:03.233Z,69.7
2017-10-03T01:42:03.681Z,69.9
2017-10-03T01:47:03.077Z,69.8
2017-10-03T01:52:03.413Z,69.9
2017-10-03T01:57:03.831Z,69.9
2017-10-03T02:02:03.370Z,70.1
2017-10-03T02:07:03.198Z,70.0
2017-10-03T02:12:03.823Z,70.1
2017-10-03T02:17:03.416Z,70.2
2017-10-03T02:22:03.158Z,70.2
2017-10-03T02:27:03.736Z,70.2
2017-10-03T02:32:03.221Z,70.3
2017-10-03T02:37:03.914Z,70.4
2017-10-03T02:42:03.025Z,70.3
2017-10-03T02:47:03.343Z,70.3
2017-10-03T02:52:03.389Z,70.3
2017-10-03T02:57:03.462Z,70.6
2017-10-03T03:02:03.602Z,70.7
2017-10-03T03:07:03.780Z,70.6
2017-10-03T03:12:03.076Z,70.7
2017-10-03T03:17:03.501Z,70.7
2017-10-03T03:22:03.481Z,70.9
2017-10-03T03:27:03.549Z,70.8
2017-10-03T03:32:03.664Z,70.9
2017-10-03T03:37:03.800Z,71.1
2017-10-03T03:42:03.819Z,71.2
2017-10-03T03:47:03.298Z,78.5
2017-10-03T03:52:03.359Z,78.5
2017-10-03T03:57:03.321Z,83.8
2017-10-03T04:02:03.673Z,86.4
2017-10-03T04:07:03.775Z,86.4
2017-10-03T04:12:03.138Z,87.0
2017-10-03T04:17:03.412Z,87.4
2017-10-03T04:22:03.532Z,87.7
2017-10-03T04:27:03.663Z,88.9
2017-10-03T04:32:03.878Z,88.8
2017-10-03T04:37:03.726Z,88.8
2017-10-03T04:42:03.684Z,89.0
2017-10-03T04:47:03.792Z,88.8
2017-10-03T04:52:03.860Z,89.2
2017-10-03T04:57:02.936Z,89.6
2017-10-03T05:02:03.453Z,90.0
2017-10-03T05:07:03.411Z,90.1
2017-10-03T05:12:03.664Z,89.4
2017-10-03T05:17:23.622Z,89.5
2017-10-03T05:22:03.237Z,89.6
2017-10-03T05:27:03.434Z,89.9
2017-10-03T05:32:25.442Z,90.2
2017-10-03T05:37:03.490Z,90.2
2017-10-03T05:42:03.484Z,90.6
2017-10-03T05:47:28.477Z,90.4
2017-10-03T05:52:03.858Z,89.6
2017-10-03T05:57:03.812Z,89.6
2017-10-03T06:02:23.621Z,89.9
2017-10-03T06:07:03.209Z,89.5
2017-10-03T06:12:03.973Z,89.4
2017-10-03T06:17:33.914Z,89.9
2017-10-03T06:22:03.054Z,89.9
2017-10-03T06:27:03.485Z,89.6
2017-10-03T06:32:28.701Z,90.2
2017-10-03T06:37:03.616Z,90.1
2017-10-03T06:42:03.833Z,90.1
2017-10-03T06:47:23.497Z,89.9
2017-10-03T06:52:03.705Z,90.0
2017-10-03T06:57:02.981Z,89.3
2017-10-03T07:02:24.124Z,89.3
2017-10-03T07:07:03.351Z,89.8
2017-10-03T07:12:03.772Z,90.1
2017-10-03T07:17:24.645Z,90.1
2017-10-03T07:22:03.852Z,90.1
2017-10-03T07:27:03.279Z,90.1
2017-10-03T07:32:28.644Z,89.8
2017-10-03T07:37:03.112Z,89.7
2017-10-03T07:42:03.368Z,89.3
2017-10-03T07:47:25.423Z,89.6
2017-10-03T07:52:03.126Z,89.8
2017-10-03T07:57:03.403Z,89.3
2017-10-03T08:02:28.602Z,88.8
2017-10-03T08:07:03.666Z,89.4
2017-10-03T08:12:03.427Z,87.5
2017-10-03T08:17:24.583Z,86.7
2017-10-03T08:22:03.466Z,86.7
2017-10-03T08:27:03.700Z,87.3
2017-10-03T08:32:28.293Z,84.8
2017-10-03T08:37:03.342Z,84.7
2017-10-03T08:42:03.632Z,84.6
2017-10-03T08:47:23.700Z,84.8
2017-10-03T08:52:03.481Z,84.3
2017-10-03T08:57:03.660Z,84.3
2017-10-03T09:02:28.907Z,81.8
2017-10-03T09:07:03.379Z,81.7
2017-10-03T09:12:03.091Z,81.1
2017-10-03T09:17:20.814Z,81.1
2017-10-03T09:22:03.393Z,80.6
2017-10-03T09:27:03.687Z,80.5
2017-10-03T09:32:24.905Z,79.3
2017-10-03T09:37:03.748Z,79.6
2017-10-03T09:42:03.135Z,79.6
2017-10-03T09:47:24.072Z,80.0
2017-10-03T09:52:03.760Z,78.9
2017-10-03T09:57:03.451Z,79.0
2017-10-03T10:02:29.849Z,78.5
2017-10-03T10:07:03.687Z,78.3
2017-10-03T10:12:03.957Z,77.3
2017-10-03T10:17:23.793Z,75.3
2017-10-03T10:22:03.671Z,74.9
2017-10-03T10:27:03.992Z,74.1
2017-10-03T10:32:23.473Z,71.7
2017-10-03T10:37:03.245Z,71.7
2017-10-03T10:42:03.763Z,71.8
2017-10-03T10:47:27.931Z,71.8
2017-10-03T10:52:03.066Z,71.8
2017-10-03T10:57:03.364Z,71.8
2017-10-03T11:02:24.308Z,72.3
2017-10-03T11:07:03.693Z,71.0
2017-10-03T11:12:03.098Z,71.0
2017-10-03T11:17:24.399Z,72.1
2017-10-03T11:22:03.658Z,71.5
2017-10-03T11:27:03.830Z,71.5
2017-10-03T11:32:30.937Z,71.8
2017-10-03T11:37:03.290Z,72.0
2017-10-03T11:42:03.407Z,72.0
2017-10-03T11:47:24.202Z,71.5
2017-10-03T11:52:03.889Z,70.5
2017-10-03T11:57:03.499Z,67.4
2017-10-03T12:02:27.157Z,67.4
2017-10-03T12:07:03.852Z,68.1
2017-10-03T12:12:03.351Z,70.0
2017-10-03T12:17:19.372Z,70.0
2017-10-03T12:22:03.071Z,68.6
2017-10-03T12:27:03.542Z,68.5
2017-10-03T12:32:28.654Z,68.7
2017-10-03T12:37:03.898Z,68.8
2017-10-03T12:42:03.583Z,68.9
2017-10-03T12:47:23.779Z,69.0
2017-10-03T12:52:03.486Z,69.5
2017-10-03T12:57:03.672Z,69.7
2017-10-03T13:02:28.294Z,69.0
2017-10-03T13:07:03.381Z,68.8
2017-10-03T13:12:03.527Z,68.9
2017-10-03T13:17:23.936Z,68.0
2017-10-03T13:22:03.749Z,68.0
2017-10-03T13:27:03.253Z,67.8
2017-10-03T13:32:28.232Z,66.9
2017-10-03T13:37:03.425Z,66.8
2017-10-03T13:42:03.856Z,66.4
2017-10-03T13:47:27.692Z,66.7
2017-10-03T13:52:03.006Z,66.9
2017-10-03T13:57:03.255Z,65.2
2017-10-03T14:02:28.450Z,64.8
2017-10-03T14:07:03.983Z,62.7
2017-10-03T14:12:03.089Z,63.5
2017-10-03T14:17:26.901Z,63.4
2017-10-03T14:22:03.385Z,59.8
2017-10-03T14:27:03.732Z,59.8
2017-10-03T14:32:24.255Z,56.9
2017-10-03T14:37:03.203Z,59.0
2017-10-03T14:42:03.419Z,63.4
2017-10-03T14:47:28.844Z,61.8
2017-10-03T14:52:02.963Z,66.5
2017-10-03T14:57:03.195Z,66.5
2017-10-03T15:02:23.999Z,68.3
2017-10-03T15:07:03.870Z,68.3
2017-10-03T15:12:03.197Z,64.1
2017-10-03T15:17:29.343Z,66.3
2017-10-03T15:22:03.563Z,64.6
2017-10-03T15:27:03.793Z,66.3
2017-10-03T15:32:25.396Z,51.5
2017-10-03T15:37:03.124Z,51.5
2017-10-03T15:42:03.316Z,48.9
2017-10-03T15:47:23.958Z,52.7
2017-10-03T15:52:03.201Z,58.8
2017-10-03T15:57:03.453Z,65.6
2017-10-03T16:02:28.868Z,67.3
2017-10-03T16:07:03.141Z,67.2
2017-10-03T16:12:03.498Z,68.0
2017-10-03T16:17:25.213Z,68.2
2017-10-03T16:22:03.469Z,67.0
2017-10-03T16:27:03.650Z,66.9
2017-10-03T16:32:22.303Z,64.0
2017-10-03T16:37:03.121Z,64.0
2017-10-03T16:42:03.361Z,63.0
2017-10-03T16:47:28.263Z,65.3
2017-10-03T16:52:03.136Z,67.1
2017-10-03T16:57:03.292Z,67.1
2017-10-03T17:02:23.926Z,68.7
2017-10-03T17:07:03.763Z,68.7
2017-10-03T17:12:03.679Z,68.9
2017-10-03T17:17:24.471Z,69.3
2017-10-03T17:22:03.106Z,69.4
2017-10-03T17:27:03.382Z,69.4
2017-10-03T17:32:23.661Z,69.3
2017-10-03T17:37:03.120Z,69.3
2017-10-03T17:42:03.544Z,69.2
2017-10-03T17:47:05.628Z,69.1
2017-10-03T17:52:03.712Z,69.0
2017-10-03T17:57:03.971Z,69.1
2017-10-03T18:02:03.056Z,68.4
2017-10-03T18:07:03.441Z,68.8
2017-10-03T18:12:03.601Z,68.7
2017-10-03T18:17:03.753Z,68.8
2017-10-03T18:22:03.940Z,68.7
2017-10-03T18:27:03.022Z,68.6
2017-10-03T18:32:03.270Z,68.6
2017-10-03T18:37:03.457Z,68.6
2017-10-03T18:42:03.487Z,68.7
2017-10-03T18:47:03.624Z,68.7
2017-10-03T18:52:03.742Z,68.7
2017-10-03T18:57:03.852Z,68.6
2017-10-03T19:02:03.097Z,68.7
2017-10-03T19:07:03.351Z,68.4
2017-10-03T19:12:03.676Z,68.5
2017-10-03T19:17:03.697Z,68.3
2017-10-03T19:22:03.834Z,68.1
2017-10-03T19:27:03.942Z,68.2
2017-10-03T19:32:03.119Z,67.9
2017-10-03T19:37:03.275Z,67.8
2017-10-03T19:42:03.411Z,67.7
2017-10-03T19:47:03.494Z,67.6
2017-10-03T19:52:03.529Z,67.5
2017-10-03T19:57:03.608Z,67.5
2017-10-03T20:02:03.885Z,67.6
2017-10-03T20:07:03.889Z,67.6
2017-10-03T20:12:03.278Z,67.4
2017-10-03T20:17:03.657Z,67.4
2017-10-03T20:22:03.624Z,67.4
2017-10-03T20:27:03.738Z,67.3
2017-10-03T20:32:03.785Z,67.4
2017-10-03T20:37:03.947Z,67.3
2017-10-03T20:42:02.945Z,67.3
2017-10-03T20:47:03.184Z,67.5
2017-10-03T20:52:03.268Z,67.5
2017-10-03T20:57:03.417Z,67.4
2017-10-03T21:02:03.478Z,67.2
2017-10-03T21:07:03.630Z,67.3
2017-10-03T21:12:03.905Z,67.4
2017-10-03T21:17:03.981Z,67.4
2017-10-03T21:22:03.212Z,67.3
2017-10-03T21:27:03.257Z,67.2
2017-10-03T21:32:03.508Z,67.2
2017-10-03T21:37:03.442Z,67.0
2017-10-03T21:42:03.588Z,67.0
2017-10-03T21:47:03.665Z,66.9
2017-10-03T21:52:03.721Z,66.8
2017-10-03T21:57:03.721Z,66.5
2017-10-03T22:02:03.049Z,66.5
2017-10-03T22:07:03.627Z,66.4
2017-10-03T22:12:03.685Z,66.2
2017-10-03T22:22:03.748Z,66.3
2017-10-03T22:27:03.121Z,66.1
2017-10-03T22:32:03.783Z,66.0
2017-10-03T22:37:03.105Z,66.1
2017-10-03T22:42:03.715Z,66.2
2017-10-03T22:47:03.542Z,66.0
2017-10-03T22:52:03.681Z,65.7
2017-10-03T22:57:03.387Z,65.6
2017-10-03T23:02:03.308Z,65.8
2017-10-03T23:07:03.533Z,65.8
2017-10-03T23:12:03.460Z,65.7
2017-10-03T23:17:03.958Z,65.6
2017-10-03T23:22:03.691Z,65.7
2017-10-03T23:27:03.276Z,65.4
2017-10-03T23:32:03.162Z,65.7
2017-10-03T23:37:03.597Z,65.5
2017-10-03T23:42:03.449Z,65.4
2017-10-03T23:47:03.198Z,65.6
2017-10-03T23:52:03.691Z,65.5
2017-10-03T23:57:03.604Z,65.6
